Burke Lakefront Airport Cleveland US
ICAO: KBKL
IATA: BKL
Category: Medium
Scheduled Services: No

Elevation: 583 ft
TransAlt. 18000 ft.

Airport Communications:
CLEVELAND APP/DEP:125.35
ASOS:125.25
ATIS:125.25
CTAF:124.3
GND:121.9
LAKEFRONT TWR:124.3
UNICOM:122.95

KBKL Zoom In..

If you have problems with the map follow the link
https://www.worldairports.se/pages/airport.php?
ICAO=KBKL

Runways:

(A) RW 06L length 6195 ft width 150 ft
---- / hdg 65

(B) RW 06R length 5199 ft width 100 ft
---- / hdg 65

(C) RW 24L length 5199 ft width 100 ft
---- / hdg 245

(D) RW 24R length 6195 ft width 150 ft
ILS 109.75 / hdg 245

Location; KBKL
Day. 25 / Time. 07.53 Zulu
* Altimeter: 29.83
* Temperature: 07° c. 44.6°f.
* Wind from: 140° Speed 05 kn.
Dewpoint: 05° c.
Visibility: 9 Statute Miles.
Clouds: Few 2900 ft.
Clouds: Broken 3900 ft.
Clouds: Overcast 5000 ft.
Conditions: Light Rain.

KBKL 250753Z AUTO 14005KT 9SM -RA FEW029 BKN039 OVC050 07/05 A2983 RMK AO2 RAB16E28B34 SLP104 P0002 T00720050


Wind From 140°
Speed 05 kn.

 
 
jpsmedia worldairports.se 2020   terms of use